Flight Track Log - Related Links

Times and Time Zones

All times are in EDT time to prevent confusion due to time zone crossing. See the ASQ5127 flight status page for this flight to view local times or setup timezone preferences in your user account.

Time Position Orientation Groundspeed Altitude Reporting Facility
EDT Latitude Longitude Course Direction KTS MPH feet Rate Location/Type
Fri 08:18:30 PM 42.2050 -83.3528 201° Southwest 163 188 1,200  Level Cleveland Center
Fri 08:19:06 PM 42.1789 -83.3661 201° Southwest 168 193 2,900 2,703 Climbing Cleveland Center
Fri 08:20:01 PM 42.1300 -83.3733 186° South 215 247 5,300 2,351 Climbing Cleveland Center
Fri 08:20:20 PM 42.1153 -83.3758 187° South 191 220 5,800 2,597 Climbing Cleveland Center
Fri 08:21:08 PM 42.0722 -83.3089 131° Southeast 312 359 8,200 2,710 Climbing Cleveland Center
Fri 08:21:22 PM 42.0689 -83.2908 104° East 290 334 8,600 1,855 Climbing Cleveland Center
Fri 08:22:03 PM 42.0706 -83.1961 89° East 349 402 9,900 1,377 Climbing Cleveland Center
Fri 08:22:23 PM 42.0736 -83.1561 84° East 347 399 10,000 98 Climbing Cleveland Center
Fri 08:23:04 PM 42.0747 -83.0589 89° East 366 421 10,000 97 Level Cleveland Center
Fri 08:23:25 PM 42.0769 -83.0189 86° East 365 420 10,100 1,745 Climbing Cleveland Center
Fri 08:23:59 PM 42.0778 -82.9328 89° East 367 422 11,600 2,323 Climbing Cleveland Center
Fri 08:24:27 PM 42.0800 -82.8822 87° East 367 422 12,500 1,267 Climbing Cleveland Center
Fri 08:25:29 PM 42.0836 -82.7422 88° East 373 429 13,500 1,403 Climbing Cleveland Center
Fri 08:26:31 PM 42.0858 -82.5953 89° East 382 440 15,400 1,984 Climbing Cleveland Center
Fri 08:27:33 PM 42.0803 -82.4214 92° East 396 456 17,600 1,790 Climbing Cleveland Center
Fri 08:28:35 PM 42.0561 -82.2686 102° East 416 479 19,100 1,403 Climbing Cleveland Center
Fri 08:29:37 PM 42.0308 -82.1042 102° East 429 494 20,500 1,161 Climbing Cleveland Center
Fri 08:30:39 PM 41.9478 -81.9917 135° Southeast 426 490 21,500 1,016 Climbing Cleveland Center
Fri 08:31:41 PM 41.8494 -81.8989 145° Southeast 424 488 22,600 1,065 Climbing Cleveland Center
Fri 08:32:43 PM 41.7478 -81.8031 145° Southeast 437 503 23,700 1,016 Climbing Cleveland Center
Fri 08:33:45 PM 41.6417 -81.7228 151° Southeast 431 496 24,700 871 Climbing Cleveland Center
Fri 08:34:47 PM 41.5267 -81.6581 157° South 439 505 25,500 774 Climbing Cleveland Center
Fri 08:35:49 PM 41.4097 -81.5917 157° South 443 510 26,300 726 Climbing Cleveland Center
Fri 08:36:51 PM 41.2781 -81.5181 157° South 450 518 27,000 581 Climbing Cleveland Center
Fri 08:37:53 PM 41.1606 -81.4506 157° South 458 527 27,500 484 Climbing Cleveland Center
Fri 08:38:55 PM 41.0464 -81.3867 157° South 467 537 28,000 532 Climbing Cleveland Center
Fri 08:39:57 PM 40.9036 -81.3064 157° South 468 539 28,600 484 Climbing Cleveland Center
Fri 08:40:59 PM 40.7808 -81.2372 157° South 471 542 29,000 194 Climbing Cleveland Center
Fri 08:42:01 PM 40.6564 -81.1672 157° South 476 548 29,000  Level Cleveland Center
Fri 08:43:03 PM 40.5275 -81.0969 157° South 484 557 29,000  Level Cleveland Center
Fri 08:44:05 PM 40.4033 -81.0292 157° South 484 557 29,000  Level Cleveland Center
Fri 08:45:06 PM 40.2794 -80.9608 157° South 485 558 29,000  Level Cleveland Center
Fri 08:46:08 PM 40.1561 -80.8931 157° South 486 559 29,000  Level Cleveland Center
Fri 08:47:10 PM 40.0317 -80.8261 158° South 487 560 29,000  Level Cleveland Center
Fri 08:48:12 PM 39.8867 -80.7319 154° Southeast 487 560 29,000  Level Cleveland Center
Fri 08:49:14 PM 39.7642 -80.6506 153° Southeast 494 568 29,000  Level Cleveland Center
Fri 08:50:16 PM 39.6436 -80.5714 153° Southeast 493 567 29,000  Level Cleveland Center
Fri 08:51:17 PM 39.5222 -80.4922 153° Southeast 493 567 29,000  Level Cleveland Center
Fri 08:52:19 PM 39.3994 -80.4131 154° Southeast 493 567 29,000  Level Cleveland Center
Fri 08:53:21 PM 39.2767 -80.3353 154° Southeast 493 567 29,000  Level Cleveland Center
Fri 08:54:22 PM 39.1239 -80.2897 167° South 479 551 29,000 -244 Level Cleveland Center
Fri 08:55:24 PM 38.9961 -80.2678 172° South 469 540 28,500 -726 Descending Cleveland Center
Fri 08:56:26 PM 38.8653 -80.2439 172° South 475 547 27,500 -976 Descending Cleveland Center
Fri 08:57:27 PM 38.7364 -80.2208 172° South 470 541 26,500 -976 Descending Cleveland Center
Fri 08:58:29 PM 38.6094 -80.1986 172° South 464 534 25,500 -1,219 Descending Cleveland Center
Fri 08:59:35 PM 38.4589 -80.1789 174° South 477 549 23,900 -1,190 Descending Washington Center
Fri 09:00:35 PM 38.3347 -80.1553 172° South 471 542 23,000 -454 Descending Washington Center
Fri 09:01:34 PM 38.2083 -80.1344 173° South 465 535 23,000  Level Washington Center
Fri 09:02:34 PM 38.0942 -80.1142 172° South 459 528 23,000 -1,438 Level Washington Center
Fri 09:03:35 PM 37.9700 -80.0908 172° South 459 528 20,100 -3,223 Descending Washington Center
Fri 09:04:35 PM 37.8561 -80.0708 172° South 443 510 16,500 -4,169 Descending Washington Center
Fri 09:05:33 PM 37.7467 -80.0408 168° South 393 452 11,900 -3,207 Descending Washington Center
Fri 09:06:31 PM 37.6897 -79.9456 127° Southeast 340 391 10,300 -1,574 Descending Washington Center
Fri 09:06:34 PM 37.6894 -79.9536 268° West 328 377 10,300 -1,429 Level Washington Center
Fri 09:07:34 PM 37.6992 -79.8544 83° East 273 314 8,800 -1,438 Descending Washington Center
Fri 09:08:35 PM 37.7089 -79.7525 83° East 266 306 7,400 -893 Descending Washington Center
Fri 09:09:35 PM 37.6611 -79.6869 133° Southeast 261 300 7,000 -256 Descending Washington Center
Fri 09:10:32 PM 37.5967 -79.6231 142° Southeast 244 281 6,900 -100 Descending Washington Center
Fri 09:10:35 PM 37.6028 -79.6233 358° North 255 293 6,900 -677 Level Washington Center
Fri 09:11:34 PM 37.5486 -79.6206 178° South 210 242 6,200 -450 Descending Washington Center
Fri 09:12:35 PM 37.4936 -79.6489 202° Southwest 205 236 6,000 -595 Descending Washington Center
Fri 09:13:35 PM 37.4725 -79.7108 247° West 189 217 5,000 -966 Descending Washington Center
Fri 09:14:33 PM 37.4411 -79.7744 238° Southwest 187 215 4,100 -582 Descending Washington Center
Fri 09:18:34 PM 37.3586 -79.9267 236° Southwest 127 146 2,100 -498 Descending Washington Center

Login

Don't have an account? Register now (free) for customized features, flight alerts, and more!